地図

経路データ

SID SEASON NUMBER BASIN SUBBASIN NAME ISO_TIME NATURE LAT LON WMO_WIND WMO_PRES WMO_AGENCY TRACK_TYPE DIST2LAND LANDFALL IFLAG USA_AGENCY USA_ATCF_ID USA_LAT USA_LON USA_RECORD USA_STATUS USA_WIND USA_PRES USA_SSHS USA_R34_NE USA_R34_SE USA_R34_SW USA_R34_NW USA_R50_NE USA_R50_SE USA_R50_SW USA_R50_NW USA_R64_NE USA_R64_SE USA_R64_SW USA_R64_NW USA_POCI USA_ROCI USA_RMW USA_EYE TOKYO_LAT TOKYO_LON TOKYO_GRADE TOKYO_WIND TOKYO_PRES TOKYO_R50_DIR TOKYO_R50_LONG TOKYO_R50_SHORT TOKYO_R30_DIR TOKYO_R30_LONG TOKYO_R30_SHORT TOKYO_LAND CMA_LAT CMA_LON CMA_CAT CMA_WIND CMA_PRES HKO_LAT HKO_LON HKO_CAT HKO_WIND HKO_PRES NEWDELHI_LAT NEWDELHI_LON NEWDELHI_GRADE NEWDELHI_WIND NEWDELHI_PRES NEWDELHI_CI NEWDELHI_DP NEWDELHI_POCI REUNION_LAT REUNION_LON REUNION_TYPE REUNION_WIND REUNION_PRES REUNION_TNUM REUNION_CI REUNION_RMW REUNION_R34_NE REUNION_R34_SE REUNION_R34_SW REUNION_R34_NW REUNION_R50_NE REUNION_R50_SE REUNION_R50_SW REUNION_R50_NW REUNION_R64_NE REUNION_R64_SE REUNION_R64_SW REUNION_R64_NW BOM_LAT BOM_LON BOM_TYPE BOM_WIND BOM_PRES BOM_TNUM BOM_CI BOM_RMW BOM_R34_NE BOM_R34_SE BOM_R34_SW BOM_R34_NW BOM_R50_NE BOM_R50_SE BOM_R50_SW BOM_R50_NW BOM_R64_NE BOM_R64_SE BOM_R64_SW BOM_R64_NW BOM_ROCI BOM_POCI BOM_EYE BOM_POS_METHOD BOM_PRES_METHOD NADI_LAT NADI_LON NADI_CAT NADI_WIND NADI_PRES WELLINGTON_LAT WELLINGTON_LON WELLINGTON_WIND WELLINGTON_PRES DS824_LAT DS824_LON DS824_STAGE DS824_WIND DS824_PRES TD9636_LAT TD9636_LON TD9636_STAGE TD9636_WIND TD9636_PRES TD9635_LAT TD9635_LON TD9635_WIND TD9635_PRES TD9635_ROCI NEUMANN_LAT NEUMANN_LON NEUMANN_CLASS NEUMANN_WIND NEUMANN_PRES MLC_LAT MLC_LON MLC_CLASS MLC_WIND MLC_PRES USA_GUST BOM_GUST BOM_GUST_PER REUNION_GUST REUNION_GUST_PER USA_SEAHGT USA_SEARAD_NE USA_SEARAD_SE USA_SEARAD_SW USA_SEARAD_NW STORM_SPEED STORM_DIR
1938244N16149 1938 45 WP MM NOT_NAMED 1938-09-01 10:00:00 NR 16.2000 148.700 main 2054 2053 __________O___ -1 16.2000 148.700 7 8 283
1938244N16149 1938 45 WP MM NOT_NAMED 1938-09-01 12:00:00 NR 16.2630 148.415 main 2064 2062 __________P___ -1 16.2630 148.415 7 9 283
1938244N16149 1938 45 WP MM NOT_NAMED 1938-09-01 15:00:00 NR 16.3649 147.975 main 2073 2072 __________P___ -1 16.3649 147.975 7 9 284
1938244N16149 1938 45 WP MM NOT_NAMED 1938-09-01 18:00:00 NR 16.4864 147.505 main 2083 2083 __________P___ -1 16.4864 147.505 7 10 286
1938244N16149 1938 45 WP MM NOT_NAMED 1938-09-01 21:00:00 NR 16.6397 146.987 main 2094 2094 __________P___ -1 16.6397 146.987 7 11 288
1938244N16149 1938 45 WP MM NOT_NAMED 1938-09-01 22:00:00 NR 16.7000 146.800 main 2105 2105 __________O___ -1 16.7000 146.800 7 12 289
1938244N16149 1938 45 WP MM NOT_NAMED 1938-09-02 00:00:00 NR 16.8356 146.404 main 2117 2072 __________P___ -1 16.8356 146.404 7 13 291
1938244N16149 1938 45 WP MM NOT_NAMED 1938-09-02 03:00:00 NR 17.0705 145.766 main 2072 2024 __________P___ -1 17.0705 145.766 7 13 292
1938244N16149 1938 45 WP MM NOT_NAMED 1938-09-02 06:00:00 NR 17.3318 145.097 main 2024 1962 __________P___ -1 17.3318 145.097 7 14 293
1938244N16149 1938 45 WP MM NOT_NAMED 1938-09-02 09:00:00 NR 17.6072 144.422 main 1962 1943 __________P___ -1 17.6072 144.422 7 14 293
1938244N16149 1938 45 WP MM NOT_NAMED 1938-09-02 10:00:00 NR 17.7000 144.200 main 1943 1906 __________O___ -1 17.7000 144.200 7 14 292
1938244N16149 1938 45 WP MM NOT_NAMED 1938-09-02 12:00:00 NR 17.8617 143.764 main 1906 1857 __________P___ -1 17.8617 143.764 7 13 292
1938244N16149 1938 45 WP MM NOT_NAMED 1938-09-02 15:00:00 NR 18.1104 143.116 main 1857 1803 __________P___ -1 18.1104 143.116 7 13 293
1938244N16149 1938 45 WP MM NOT_NAMED 1938-09-02 18:00:00 NR 18.3803 142.487 main 1803 1750 __________P___ -1 18.3803 142.487 7 13 296
1938244N16149 1938 45 WP MM NOT_NAMED 1938-09-02 21:00:00 NR 18.6869 141.890 main 1750 1732 __________P___ -1 18.6869 141.890 7 13 299
1938244N16149 1938 45 WP MM NOT_NAMED 1938-09-02 22:00:00 NR 18.8000 141.700 main 1732 1698 __________O___ -1 18.8000 141.700 7 13 304
1938244N16149 1938 45 WP MM NOT_NAMED 1938-09-03 00:00:00 NR 19.0433 141.330 main 1698 1637 __________P___ -1 19.0433 141.330 7 13 307
1938244N16149 1938 45 WP MM NOT_NAMED 1938-09-03 03:00:00 NR 19.4465 140.807 main 1637 1562 __________P___ -1 19.4465 140.807 7 13 311
1938244N16149 1938 45 WP MM NOT_NAMED 1938-09-03 06:00:00 NR 19.8843 140.315 main 1562 1501 __________P___ -1 19.8843 140.315 7 13 315
1938244N16149 1938 45 WP MM NOT_NAMED 1938-09-03 09:00:00 NR 20.3441 139.850 main 1501 1471 __________P___ -1 20.3441 139.850 7 13 317
1938244N16149 1938 45 WP MM NOT_NAMED 1938-09-03 10:00:00 NR 20.5000 139.700 main 1471 1426 __________O___ -1 20.5000 139.700 7 13 317
1938244N16149 1938 45 WP MM NOT_NAMED 1938-09-03 12:00:00 NR 20.8049 139.394 main 1426 1357 __________P___ -1 20.8049 139.394 7 13 318
1938244N16149 1938 45 WP MM NOT_NAMED 1938-09-03 15:00:00 NR 21.2752 138.954 main 1357 1282 __________P___ -1 21.2752 138.954 7 12 320
1938244N16149 1938 45 WP MM NOT_NAMED 1938-09-03 18:00:00 NR 21.7553 138.534 main 1282 1222 __________P___ -1 21.7553 138.534 7 12 322
1938244N16149 1938 45 WP MM NOT_NAMED 1938-09-03 21:00:00 NR 22.2391 138.131 main 1222 1198 __________P___ -1 22.2391 138.131 7 12 323
1938244N16149 1938 45 WP MM NOT_NAMED 1938-09-03 22:00:00 NR 22.4000 138.000 main 1198 1153 __________O___ -1 22.4000 138.000 7 12 322
1938244N16149 1938 45 WP MM NOT_NAMED 1938-09-04 00:00:00 NR 22.7191 137.730 main 1153 1084 __________P___ -1 22.7191 137.730 7 12 323
1938244N16149 1938 45 WP MM NOT_NAMED 1938-09-04 03:00:00 NR 23.1980 137.339 main 1084 1021 __________P___ -1 23.1980 137.339 7 12 324
1938244N16149 1938 45 WP MM NOT_NAMED 1938-09-04 06:00:00 NR 23.6743 136.965 main 1021 961 __________P___ -1 23.6743 136.965 7 12 325
1938244N16149 1938 45 WP MM NOT_NAMED 1938-09-04 09:00:00 NR 24.1450 136.612 main 961 937 __________P___ -1 24.1450 136.612 7 11 326
1938244N16149 1938 45 WP MM NOT_NAMED 1938-09-04 10:00:00 NR 24.3000 136.500 main 937 898 __________O___ -1 24.3000 136.500 7 11 327
1938244N16149 1938 45 WP MM NOT_NAMED 1938-09-04 12:00:00 NR 24.6069 136.284 main 898 834 __________P___ -1 24.6069 136.284 7 11 328
1938244N16149 1938 45 WP MM NOT_NAMED 1938-09-04 15:00:00 NR 25.0606 135.976 main 834 780 __________P___ -1 25.0606 135.976 7 11 329
1938244N16149 1938 45 WP MM NOT_NAMED 1938-09-04 18:00:00 NR 25.5083 135.682 main 780 717 __________P___ -1 25.5083 135.682 7 10 330
1938244N16149 1938 45 WP MM NOT_NAMED 1938-09-04 21:00:00 NR 25.9524 135.395 main 717 702 __________P___ -1 25.9524 135.395 7 10 330
1938244N16149 1938 45 WP MM NOT_NAMED 1938-09-04 22:00:00 NR 26.1000 135.300 main 702 __________O___ -1 26.1000 135.300 7 10 329

デジタル台風データ・検索

IBTrACS Databaseについて

本データベースは、米国NOAAが公開する1842年以降の世界の熱帯低気圧のベストトラックデータアーカイブInternational Best Track Archive for Climate Stewardship (IBTrACS)を、ウェブで閲覧しやすい形式に変換したものです。

最終更新日:2021-12-01